Pattersonville, New York
Current Conditions -  °F | °C
As of 5:55 PM on Thursday 18 Dec 2014 (Local Time) from KNY0 Reporting Station
Overcast Overcast  
Wind Chill: 18°   Ceiling: 1300
Heat Index: 29°   Visibility: 10mi
Dew Point: 24°   Wind: 14mph
Humidity: 83%   Direction: 270°W
Pressure: 29.93"   Gusts: 26mph
Location:  42.89°N, 74.08°W
Report Text: KNY0 182255Z AUTO 27012G23KT 10SM OVC013 M02/M04 A2993 RMK AO2 T10161042
Loading
Personal Weather Stations






























Interactive Weather Map New forecast layout! Learn more

10-Day Weather Forecast

Advertisements
Track Severe Weather on mobile